Time;durP1;ratioP1;P1;durP2;ratioP2;P2;SDS_P1;SDS_P2;PMS_P1;PMS_P2;Temp;Humidity;BMP_temperature;BMP_pressure;BME280_temperature;BME280_humidity;BME280_pressure;Samples;Min_cycle;Max_cycle;Signal;HPM_P1;HPM_P2
2023/10/04 00:02:38;;;;;;;6.50;3.20;;;;;;;15.49;100.00;102414.47;10582474;28;20040;-74
2023/10/04 00:07:39;;;;;;;5.60;2.97;;;;;;;15.39;100.00;102416.66;10598767;27;20482;-74
2023/10/04 00:12:44;;;;;;;6.78;2.17;;;;;;;15.29;100.00;102416.97;10580641;28;20097;-73
2023/10/04 00:17:44;;;;;;;8.73;2.25;;;;;;;15.15;100.00;102423.28;10580732;28;20071;-74
2023/10/04 00:22:46;;;;;;;4.80;2.53;;;;;;;15.07;100.00;102430.56;10579955;28;20063;-74
2023/10/04 00:27:52;;;;;;;7.25;3.00;;;;;;;15.10;100.00;102418.44;10579415;28;20126;-73
2023/10/04 00:32:53;;;;;;;12.48;3.40;;;;;;;14.97;100.00;102430.00;10581767;28;20447;-74
2023/10/04 00:37:57;;;;;;;4.30;2.95;;;;;;;14.91;100.00;102430.75;10562451;28;20031;-73
2023/10/04 00:43:01;;;;;;;9.95;3.90;;;;;;;14.84;100.00;102435.28;10580873;28;20184;-74
2023/10/04 00:48:09;;;;;;;5.15;2.85;;;;;;;14.82;100.00;102430.00;10562021;28;20038;-74
2023/10/04 00:53:16;;;;;;;5.13;2.33;;;;;;;14.82;100.00;102445.53;10580339;28;20043;-74
2023/10/04 00:58:19;;;;;;;10.53;3.03;;;;;;;14.84;100.00;102451.66;10545676;28;20032;-74
2023/10/04 01:03:23;;;;;;;8.98;2.92;;;;;;;14.80;100.00;102451.16;10578990;28;20267;-73
2023/10/04 01:08:24;;;;;;;11.57;2.97;;;;;;;14.80;100.00;102455.75;10578648;28;20085;-73
2023/10/04 01:13:26;;;;;;;3.35;2.83;;;;;;;14.79;100.00;102459.53;10561919;28;20478;-74
2023/10/04 01:18:30;;;;;;;3.70;2.50;;;;;;;14.89;100.00;102471.00;10580283;28;20119;-73
2023/10/04 01:23:30;;;;;;;4.38;2.25;;;;;;;14.84;100.00;102462.56;10577658;28;20054;-73
2023/10/04 01:28:30;;;;;;;12.07;2.60;;;;;;;14.84;100.00;102447.03;10577425;28;20042;-74
2023/10/04 01:33:31;;;;;;;9.90;2.97;;;;;;;14.92;100.00;102448.81;10576864;28;20047;-74
2023/10/04 01:38:33;;;;;;;4.97;2.85;;;;;;;14.86;100.00;102446.84;10577171;28;20039;-74
2023/10/04 01:43:33;;;;;;;9.10;2.97;;;;;;;14.75;100.00;102450.03;10577278;28;20481;-73
2023/10/04 01:48:34;;;;;;;3.40;2.47;;;;;;;14.75;100.00;102452.78;10577430;28;20077;-73
2023/10/04 01:53:35;;;;;;;2.22;1.85;;;;;;;14.76;100.00;102449.84;10595388;28;20059;-73
2023/10/04 01:58:37;;;;;;;10.07;3.17;;;;;;;14.65;100.00;102437.53;10581968;28;20071;-73
2023/10/04 02:03:38;;;;;;;5.10;3.22;;;;;;;14.55;100.00;102442.41;10588151;28;20186;-73
2023/10/04 02:08:39;;;;;;;8.82;2.88;;;;;;;14.48;100.00;102443.28;10587332;28;20035;-73
2023/10/04 02:13:40;;;;;;;4.22;3.65;;;;;;;14.40;100.00;102457.84;10587560;28;20030;-73
2023/10/04 02:18:42;;;;;;;16.63;3.33;;;;;;;14.32;100.00;102457.91;10586615;28;20107;-74
2023/10/04 02:23:42;;;;;;;7.35;3.08;;;;;;;14.35;100.00;102460.28;10586722;28;20047;-73
2023/10/04 02:28:45;;;;;;;7.43;3.42;;;;;;;14.29;100.00;102466.47;10586706;28;20058;-73
2023/10/04 02:33:46;;;;;;;8.43;2.30;;;;;;;14.22;100.00;102471.81;10586079;28;20435;-74
2023/10/04 02:38:47;;;;;;;3.28;2.58;;;;;;;14.25;100.00;102478.78;10584222;28;20122;-74
2023/10/04 02:43:47;;;;;;;9.20;3.10;;;;;;;14.26;100.00;102475.00;10585379;28;20058;-74
2023/10/04 02:48:48;;;;;;;5.28;2.90;;;;;;;14.33;100.00;102481.44;10585110;27;20160;-73
2023/10/04 02:53:49;;;;;;;5.03;1.73;;;;;;;14.31;100.00;102478.88;10600897;27;20039;-72
2023/10/04 02:58:49;;;;;;;7.40;3.47;;;;;;;14.16;100.00;102480.72;10583471;28;20039;-73
2023/10/04 03:03:52;;;;;;;6.75;4.65;;;;;;;14.12;100.00;102482.09;10585402;28;20452;-78
2023/10/04 03:08:55;;;;;;;5.05;2.72;;;;;;;14.06;100.00;102480.09;10585332;28;20044;-78
2023/10/04 03:13:58;;;;;;;9.20;3.80;;;;;;;13.97;100.00;102476.59;10585249;28;20039;-77
2023/10/04 03:18:59;;;;;;;6.32;3.60;;;;;;;13.85;100.00;102472.63;10567275;28;20031;-77
2023/10/04 03:23:59;;;;;;;6.78;2.50;;;;;;;13.84;100.00;102468.19;10584663;28;20059;-77
2023/10/04 03:29:00;;;;;;;12.50;3.45;;;;;;;13.72;100.00;102465.88;10601113;27;20416;-77
2023/10/04 03:34:02;;;;;;;11.57;3.88;;;;;;;13.65;100.00;102464.88;10584746;28;20036;-77
2023/10/04 03:39:03;;;;;;;5.95;3.50;;;;;;;13.60;100.00;102469.19;10583418;28;20031;-77
2023/10/04 03:44:05;;;;;;;10.43;3.10;;;;;;;13.66;100.00;102463.03;10601157;27;20339;-77
2023/10/04 03:49:06;;;;;;;16.75;4.40;;;;;;;13.59;100.00;102465.63;10585314;28;20035;-77
2023/10/04 03:54:07;;;;;;;10.30;4.68;;;;;;;13.50;100.00;102455.81;10581919;28;20031;-77
2023/10/04 03:59:10;;;;;;;7.20;3.75;;;;;;;13.47;100.00;102456.19;10582465;28;20035;-78
2023/10/04 04:04:14;;;;;;;13.00;3.70;;;;;;;13.43;100.00;102444.81;10582092;28;20416;-77
2023/10/04 04:09:14;;;;;;;16.88;3.60;;;;;;;13.35;100.00;102436.69;10582631;28;20454;-77
2023/10/04 04:14:18;;;;;;;9.85;3.45;;;;;;;13.26;100.00;102435.84;10582069;28;20050;-76
2023/10/04 04:19:22;;;;;;;12.07;3.78;;;;;;;13.13;100.00;102434.72;10580703;28;20049;-77
2023/10/04 04:24:23;;;;;;;9.57;3.47;;;;;;;13.01;100.00;102454.13;10582388;28;20055;-77
2023/10/04 04:29:23;;;;;;;6.28;3.00;;;;;;;12.91;100.00;102460.78;10582825;28;20035;-77
2023/10/04 04:34:25;;;;;;;9.45;3.33;;;;;;;12.83;100.00;102466.25;10582724;28;20494;-78
2023/10/04 04:39:28;;;;;;;8.13;2.75;;;;;;;12.77;100.00;102484.97;10581478;28;20450;-77
2023/10/04 04:44:38;;;;;;;13.48;3.95;;;;;;;12.74;100.00;102468.16;10582299;28;20045;-77
2023/10/04 04:49:38;;;;;;;18.98;3.03;;;;;;;12.66;100.00;102470.88;10599236;27;20031;-77
2023/10/04 04:54:39;;;;;;;5.63;3.78;;;;;;;12.66;100.00;102476.31;10583128;28;20055;-77
2023/10/04 04:59:42;;;;;;;9.93;5.57;;;;;;;12.64;100.00;102486.53;10581941;28;20068;-76
2023/10/04 05:04:43;;;;;;;11.05;3.80;;;;;;;12.63;100.00;102488.38;10583359;28;20391;-76
2023/10/04 05:09:44;;;;;;;7.43;4.30;;;;;;;12.64;100.00;102494.69;10582819;28;20111;-75
2023/10/04 05:14:44;;;;;;;15.55;4.25;;;;;;;12.62;100.00;102505.72;10582592;28;20024;-76
2023/10/04 05:19:45;;;;;;;12.38;4.20;;;;;;;12.67;100.00;102500.63;10580020;28;20388;-75
2023/10/04 05:24:45;;;;;;;12.88;4.93;;;;;;;12.62;100.00;102503.00;10597259;27;20080;-76
2023/10/04 05:29:46;;;;;;;11.02;4.63;;;;;;;12.54;100.00;102503.03;10579208;28;20436;-77
2023/10/04 05:34:48;;;;;;;15.55;5.65;;;;;;;12.61;100.00;102522.22;10595388;27;20020;-77
2023/10/04 05:39:49;;;;;;;20.33;5.95;;;;;;;12.59;100.00;102516.94;10596984;27;20027;-76
2023/10/04 05:44:52;;;;;;;16.73;3.88;;;;;;;12.61;100.00;102509.47;10577949;28;20027;-76
2023/10/04 05:49:52;;;;;;;10.18;4.78;;;;;;;12.62;100.00;102513.88;10578954;28;20355;-76
2023/10/04 05:54:53;;;;;;;10.32;4.40;;;;;;;12.75;100.00;102507.91;10580318;28;20028;-76
2023/10/04 05:59:54;;;;;;;9.10;3.42;;;;;;;12.99;100.00;102512.44;10578603;28;20030;-77
2023/10/04 06:04:56;;;;;;;9.85;5.05;;;;;;;13.17;100.00;102513.06;10578712;28;20031;-77
2023/10/04 06:09:57;;;;;;;10.70;3.85;;;;;;;13.32;100.00;102521.38;10579857;28;20413;-77
2023/10/04 06:14:57;;;;;;;14.88;4.55;;;;;;;13.46;100.00;102523.38;10578264;28;20028;-77
2023/10/04 06:19:58;;;;;;;10.70;4.10;;;;;;;13.57;100.00;102527.56;10578923;28;20070;-77
2023/10/04 06:24:59;;;;;;;5.07;3.90;;;;;;;13.70;100.00;102527.84;10579809;28;20027;-78
2023/10/04 06:29:59;;;;;;;9.45;4.78;;;;;;;13.99;100.00;102526.28;10579046;28;20027;-77
2023/10/04 06:35:00;;;;;;;14.50;5.18;;;;;;;14.40;100.00;102515.09;10561133;28;20114;-77
2023/10/04 06:40:01;;;;;;;10.50;4.78;;;;;;;14.74;100.00;102521.97;10577041;28;20036;-77
2023/10/04 06:45:01;;;;;;;13.38;5.05;;;;;;;14.83;100.00;102521.69;10600228;27;20061;-76
2023/10/04 06:50:05;;;;;;;12.02;4.88;;;;;;;14.90;100.00;102527.28;10586936;28;20413;-76
2023/10/04 06:55:08;;;;;;;13.45;5.15;;;;;;;15.33;100.00;102532.91;10552487;28;20035;-77
2023/10/04 07:00:16;;;;;;;20.10;6.15;;;;;;;15.92;100.00;102538.31;10585670;27;20078;-77
2023/10/04 07:05:18;;;;;;;14.20;4.65;;;;;;;16.02;100.00;102546.19;10586679;28;20334;-77
2023/10/04 07:10:20;;;;;;;6.03;3.85;;;;;;;16.14;100.00;102546.50;10584874;28;20034;-77
2023/10/04 07:15:21;;;;;;;6.32;4.32;;;;;;;16.02;100.00;102547.03;10586599;28;20039;-77
2023/10/04 07:20:24;;;;;;;14.75;5.05;;;;;;;16.11;100.00;102555.09;10568326;28;20479;-77
2023/10/04 07:25:29;;;;;;;11.68;5.25;;;;;;;16.21;100.00;102558.38;10583999;28;20520;-77
2023/10/04 07:30:30;;;;;;;12.27;4.43;;;;;;;16.46;100.00;102556.94;10586187;28;20187;-77
2023/10/04 07:35:31;;;;;;;9.45;4.78;;;;;;;16.31;100.00;102558.91;10583868;28;20024;-77
2023/10/04 07:40:32;;;;;;;11.82;4.88;;;;;;;16.34;100.00;102557.69;10585208;28;20385;-77
2023/10/04 07:45:32;;;;;;;12.68;5.85;;;;;;;16.79;100.00;102564.63;10566460;28;20027;-77
2023/10/04 07:50:33;;;;;;;9.45;5.25;;;;;;;17.05;100.00;102579.56;10583023;28;20094;-77
2023/10/04 07:55:34;;;;;;;13.95;4.57;;;;;;;17.02;100.00;102583.53;10584174;28;20035;-77
2023/10/04 08:00:36;;;;;;;10.38;4.05;;;;;;;16.86;100.00;102586.56;10582543;28;20024;-77
2023/10/04 08:05:38;;;;;;;16.63;4.63;;;;;;;16.92;100.00;102591.25;10565205;28;20035;-77
2023/10/04 08:10:39;;;;;;;7.65;4.43;;;;;;;16.94;100.00;102591.88;10582133;28;20027;-77
2023/10/04 08:15:40;;;;;;;15.07;4.40;;;;;;;17.20;100.00;102596.72;10583385;28;20060;-77
2023/10/04 08:20:42;;;;;;;5.47;3.42;;;;;;;17.49;100.00;102600.28;10598796;27;20496;-77
2023/10/04 08:25:42;;;;;;;4.35;3.75;;;;;;;17.94;100.00;102587.00;10583232;28;20373;-78
2023/10/04 08:30:43;;;;;;;19.10;5.82;;;;;;;18.03;100.00;102588.53;10581395;28;20031;-77
2023/10/04 08:35:45;;;;;;;11.35;4.40;;;;;;;17.71;100.00;102590.03;10580694;28;20088;-78
2023/10/04 08:40:45;;;;;;;10.15;5.00;;;;;;;17.60;100.00;102591.47;10582104;28;20027;-77
2023/10/04 08:45:46;;;;;;;11.50;4.65;;;;;;;17.61;100.00;102585.78;10581073;28;20027;-77
2023/10/04 08:50:55;;;;;;;12.13;4.75;;;;;;;17.44;100.00;102593.47;10581013;28;20020;-77
2023/10/04 08:56:13;;;;;;;11.85;3.88;;;;;;;17.82;100.00;102584.00;10582395;28;20034;-77
2023/10/04 09:01:15;;;;;;;4.72;3.22;;;;;;;18.21;100.00;102585.19;10582317;28;20035;-78
2023/10/04 09:06:16;;;;;;;8.15;3.72;;;;;;;18.19;100.00;102585.41;10546823;28;20035;-78
2023/10/04 09:11:17;;;;;;;11.45;3.97;;;;;;;18.23;100.00;102578.44;10546288;28;20118;-78
2023/10/04 09:16:22;;;;;;;12.38;4.15;;;;;;;18.42;100.00;102575.94;10580580;28;20047;-77
2023/10/04 09:21:22;;;;;;;14.25;4.13;;;;;;;18.49;100.00;102590.50;10579505;28;20086;-77
2023/10/04 09:26:23;;;;;;;10.18;4.07;;;;;;;18.47;100.00;102587.97;10579505;28;20027;-77
2023/10/04 09:31:26;;;;;;;7.72;4.20;;;;;;;18.37;100.00;102587.53;10579489;28;20038;-77
2023/10/04 09:36:35;;;;;;;9.55;3.92;;;;;;;18.06;100.00;102585.34;10579295;28;20023;-77
2023/10/04 09:41:41;;;;;;;10.57;4.90;;;;;;;17.83;100.00;102592.00;10579964;28;20031;-77
2023/10/04 09:46:50;;;;;;;8.27;3.92;;;;;;;17.52;100.00;102599.88;10581935;28;20106;-77
2023/10/04 09:51:52;;;;;;;8.02;3.25;;;;;;;17.53;100.00;102593.31;10564888;28;20034;-77
2023/10/04 09:56:54;;;;;;;8.10;4.28;;;;;;;17.41;100.00;102588.41;10580832;28;20111;-78
2023/10/04 10:01:59;;;;;;;6.30;3.80;;;;;;;17.24;100.00;102587.06;10562752;28;20063;-77
2023/10/04 10:07:13;;;;;;;15.98;4.18;;;;;;;17.51;100.00;102593.50;10562788;28;20027;-78
2023/10/04 10:12:13;;;;;;;6.47;3.67;;;;;;;18.22;100.00;102578.63;10565155;28;20149;-77
2023/10/04 10:17:17;;;;;;;15.25;3.80;;;;;;;19.65;100.00;102579.00;10580416;28;20024;-77
2023/10/04 10:22:19;;;;;;;8.35;4.57;;;;;;;19.94;100.00;102583.13;10571448;28;20047;-77
2023/10/04 10:27:19;;;;;;;15.98;3.58;;;;;;;20.41;100.00;102584.53;10570589;28;20043;-77
2023/10/04 10:32:22;;;;;;;10.18;2.80;;;;;;;20.69;100.00;102575.03;10586599;28;20355;-78
2023/10/04 10:37:23;;;;;;;7.50;4.05;;;;;;;20.32;100.00;102554.75;10603557;27;20038;-77
2023/10/04 10:42:23;;;;;;;4.68;3.60;;;;;;;19.67;100.00;102572.25;10586608;28;20380;-77
2023/10/04 10:47:25;;;;;;;6.03;3.70;;;;;;;19.41;100.00;102575.91;10587731;28;20038;-77
2023/10/04 10:52:38;;;;;;;10.68;4.70;;;;;;;19.28;100.00;102564.97;10587362;28;20034;-77
2023/10/04 10:57:41;;;;;;;8.88;3.40;;;;;;;18.92;100.00;102558.06;10587068;28;20120;-78
2023/10/04 11:02:41;;;;;;;6.28;4.90;;;;;;;18.58;100.00;102573.63;10568973;28;20027;-78
2023/10/04 11:07:44;;;;;;;6.15;4.03;;;;;;;18.42;100.00;102564.97;10586514;28;20027;-77
2023/10/04 11:12:46;;;;;;;6.72;3.30;;;;;;;18.12;100.00;102565.31;10584605;28;20034;-77
2023/10/04 11:17:46;;;;;;;10.55;3.00;;;;;;;17.84;100.00;102566.31;10585373;28;20142;-77
2023/10/04 11:22:51;;;;;;;7.05;3.38;;;;;;;17.65;100.00;102570.63;10586043;27;20135;-77
2023/10/04 11:27:51;;;;;;;8.52;3.85;;;;;;;17.16;100.00;102573.50;10568659;28;20073;-75
2023/10/04 11:32:52;;;;;;;4.75;3.38;;;;;;;17.14;100.00;102576.47;10582562;28;20355;-76
2023/10/04 11:37:52;;;;;;;3.83;2.88;;;;;;;17.48;100.00;102568.44;10601686;27;20057;-77
2023/10/04 11:43:00;;;;;;;9.38;2.53;;;;;;;17.71;100.00;102560.75;10587378;28;20459;-77
2023/10/04 11:48:08;;;;;;;8.18;2.38;;;;;;;18.44;100.00;102550.00;10585917;28;20037;-78
2023/10/04 11:53:09;;;;;;;9.75;2.15;;;;;;;18.41;100.00;102539.44;10587781;27;20039;-77
2023/10/04 11:58:12;;;;;;;3.20;2.05;;;;;;;18.16;100.00;102539.22;10584360;28;20104;-78
2023/10/04 12:03:13;;;;;;;3.13;1.73;;;;;;;18.25;100.00;102551.66;10565970;28;20136;-77
2023/10/04 12:08:13;;;;;;;8.77;2.42;;;;;;;18.31;100.00;102548.09;10584031;28;20031;-77
2023/10/04 12:13:16;;;;;;;9.13;3.22;;;;;;;18.44;100.00;102543.66;10583735;28;20044;-77
2023/10/04 12:18:16;;;;;;;5.03;2.97;;;;;;;18.21;100.00;102544.06;10600167;27;20434;-77
2023/10/04 12:23:18;;;;;;;17.92;2.83;;;;;;;18.34;100.00;102528.44;10600196;27;20116;-77
2023/10/04 12:28:19;;;;;;;7.20;2.15;;;;;;;18.48;100.00;102525.75;10584508;28;20123;-77
2023/10/04 12:33:20;;;;;;;3.67;1.92;;;;;;;18.66;100.00;102527.84;10585083;28;20115;-77
2023/10/04 12:38:24;;;;;;;6.07;1.85;;;;;;;18.62;100.00;102527.41;10583714;28;20023;-77
2023/10/04 12:43:24;;;;;;;4.10;2.25;;;;;;;18.76;100.00;102522.78;10584193;28;20438;-78
2023/10/04 12:48:25;;;;;;;6.07;2.13;;;;;;;18.94;100.00;102533.13;10582412;28;20032;-77
2023/10/04 12:53:25;;;;;;;5.43;2.63;;;;;;;18.96;100.00;102525.53;10581745;28;20019;-77
2023/10/04 12:58:26;;;;;;;3.92;2.03;;;;;;;18.90;100.00;102518.97;10581500;28;20104;-77
2023/10/04 13:03:31;;;;;;;3.13;2.85;;;;;;;19.08;100.00;102509.22;10582048;28;20066;-77
2023/10/04 13:08:32;;;;;;;7.18;1.40;;;;;;;19.52;99.60;102508.44;10581120;28;20118;-77
2023/10/04 13:13:33;;;;;;;3.92;2.30;;;;;;;19.52;100.00;102508.44;10580094;28;20047;-77
2023/10/04 13:18:34;;;;;;;3.67;2.83;;;;;;;19.67;100.00;102503.53;10580193;28;20023;-77
2023/10/04 13:23:35;;;;;;;6.05;2.97;;;;;;;19.43;100.00;102505.09;10579294;28;20118;-77
2023/10/04 13:28:37;;;;;;;7.10;3.17;;;;;;;19.63;100.00;102505.00;10546331;28;20051;-77
2023/10/04 13:33:38;;;;;;;4.25;2.03;;;;;;;19.14;100.00;102500.97;10579898;28;20072;-77
2023/10/04 13:38:39;;;;;;;3.72;2.15;;;;;;;18.57;100.00;102494.31;10578885;28;20035;-77
2023/10/04 13:43:39;;;;;;;3.70;2.55;;;;;;;18.40;100.00;102493.84;10581009;28;20358;-77
2023/10/04 13:48:41;;;;;;;14.32;3.78;;;;;;;18.49;100.00;102500.81;10561910;28;20031;-77
2023/10/04 13:53:41;;;;;;;13.23;1.88;;;;;;;18.56;100.00;102489.84;10580380;28;20111;-77
2023/10/04 13:58:42;;;;;;;3.40;2.90;;;;;;;18.59;100.00;102483.94;10546315;28;20028;-77
2023/10/04 14:03:44;;;;;;;2.63;2.40;;;;;;;18.27;100.00;102478.25;10596642;28;20359;-76
2023/10/04 14:08:45;;;;;;;8.48;2.75;;;;;;;18.29;100.00;102465.19;10596159;28;20024;-77
2023/10/04 14:13:45;;;;;;;7.40;2.58;;;;;;;18.33;100.00;102466.44;10563342;28;20362;-77
2023/10/04 14:18:47;;;;;;;9.60;2.38;;;;;;;19.35;100.00;102466.03;10579330;28;20467;-77
2023/10/04 14:23:48;;;;;;;1.60;1.45;;;;;;;19.37;100.00;102458.41;10579303;28;20346;-77
2023/10/04 14:28:48;;;;;;;5.80;2.70;;;;;;;18.87;100.00;102439.81;10578525;28;20046;-77
2023/10/04 14:33:49;;;;;;;4.05;1.80;;;;;;;18.66;100.00;102440.84;10580062;28;20389;-77
2023/10/04 14:38:52;;;;;;;10.32;1.95;;;;;;;19.14;100.00;102440.53;10580221;28;20118;-77
2023/10/04 14:43:53;;;;;;;2.40;1.65;;;;;;;18.57;98.72;102434.78;10579229;28;20044;-77
2023/10/04 14:48:53;;;;;;;3.72;1.75;;;;;;;17.80;100.00;102449.09;10595389;28;20035;-76
2023/10/04 14:53:55;;;;;;;5.20;1.67;;;;;;;17.50;100.00;102446.66;10579508;28;20027;-77
2023/10/04 14:58:55;;;;;;;10.05;2.10;;;;;;;17.57;100.00;102444.78;10577875;28;20082;-76
2023/10/04 15:03:57;;;;;;;2.78;2.08;;;;;;;17.79;100.00;102442.75;10582119;28;20116;-77
2023/10/04 15:08:57;;;;;;;9.25;2.33;;;;;;;17.93;100.00;102437.31;10587023;28;20035;-77
2023/10/04 15:13:58;;;;;;;1.65;1.55;;;;;;;17.92;100.00;102441.09;10587071;28;20062;-76
2023/10/04 15:18:58;;;;;;;9.85;2.25;;;;;;;17.93;100.00;102431.81;10602437;27;20059;-77
2023/10/04 15:24:04;;;;;;;7.32;2.85;;;;;;;17.99;100.00;102420.03;10585550;28;20126;-76
2023/10/04 15:29:05;;;;;;;4.27;2.77;;;;;;;17.96;100.00;102418.53;10586873;28;20042;-77
2023/10/04 15:34:09;;;;;;;6.68;2.33;;;;;;;17.56;100.00;102415.72;10585280;28;20038;-76
2023/10/04 15:39:31;;;;;;;1.83;1.73;;;;;;;17.52;100.00;102419.94;10585250;28;20064;-76
2023/10/04 15:44:31;;;;;;;5.65;1.90;;;;;;;17.60;100.00;102421.63;10601838;27;20032;-77
2023/10/04 15:49:32;;;;;;;1.58;1.45;;;;;;;17.74;100.00;102415.13;10583373;28;20038;-76
2023/10/04 15:54:32;;;;;;;4.00;2.58;;;;;;;17.64;100.00;102415.53;10584452;28;20058;-77
2023/10/04 15:59:33;;;;;;;3.90;1.95;;;;;;;17.22;100.00;102410.34;10567009;28;20446;-77
2023/10/04 16:04:33;;;;;;;4.93;2.13;;;;;;;17.00;100.00;102420.56;10585187;28;20031;-76
2023/10/04 16:09:33;;;;;;;2.95;2.17;;;;;;;16.86;100.00;102408.72;10584543;28;20032;-77
2023/10/04 16:14:34;;;;;;;5.28;2.17;;;;;;;16.51;100.00;102416.88;10582552;28;20031;-76
2023/10/04 16:19:34;;;;;;;11.68;2.40;;;;;;;16.44;100.00;102421.47;10581604;28;20032;-77
2023/10/04 16:24:35;;;;;;;6.15;2.65;;;;;;;16.34;100.00;102420.97;10583969;28;20058;-76
2023/10/04 16:29:35;;;;;;;2.28;2.08;;;;;;;16.32;100.00;102432.09;10582938;28;20355;-77
2023/10/04 16:34:37;;;;;;;10.90;3.50;;;;;;;16.16;100.00;102433.22;10583252;28;20450;-77
2023/10/04 16:39:38;;;;;;;4.03;3.00;;;;;;;16.06;100.00;102429.16;10582325;28;20410;-77
2023/10/04 16:44:38;;;;;;;7.68;3.00;;;;;;;15.94;100.00;102431.56;10564304;28;20031;-76
2023/10/04 16:49:39;;;;;;;4.22;1.92;;;;;;;15.86;100.00;102410.69;10582998;28;20051;-76
2023/10/04 16:54:39;;;;;;;6.15;2.95;;;;;;;15.70;100.00;102430.06;10580563;28;20046;-77
2023/10/04 16:59:40;;;;;;;4.80;3.13;;;;;;;15.59;100.00;102437.69;10598833;27;20507;-76
2023/10/04 17:04:40;;;;;;;7.63;3.60;;;;;;;15.47;100.00;102435.66;10582277;28;20288;-77
2023/10/04 17:09:41;;;;;;;2.95;1.67;;;;;;;15.36;100.00;102439.72;10580548;28;20027;-76
2023/10/04 17:14:42;;;;;;;9.57;2.55;;;;;;;15.32;100.00;102439.28;10563974;28;20035;-76
2023/10/04 17:19:43;;;;;;;1.63;1.52;;;;;;;15.18;100.00;102436.56;10581023;28;20039;-76
2023/10/04 17:24:44;;;;;;;2.85;1.85;;;;;;;15.14;100.00;102432.53;10563805;28;20035;-77
2023/10/04 17:29:44;;;;;;;2.03;1.88;;;;;;;15.10;100.00;102441.09;10580060;28;20583;-76
2023/10/04 17:34:45;;;;;;;7.35;2.58;;;;;;;15.33;100.00;102440.97;10579997;28;20126;-76
2023/10/04 17:39:46;;;;;;;9.48;2.75;;;;;;;15.32;100.00;102444.72;10579653;28;20088;-76
2023/10/04 17:44:47;;;;;;;3.60;2.00;;;;;;;15.05;100.00;102438.06;10580235;28;20118;-76
2023/10/04 17:49:52;;;;;;;2.42;2.22;;;;;;;15.00;100.00;102436.97;10562449;28;20400;-76
2023/10/04 17:54:53;;;;;;;4.65;2.30;;;;;;;14.87;100.00;102435.75;10580242;28;20031;-76
2023/10/04 17:59:53;;;;;;;2.28;1.80;;;;;;;14.85;100.00;102442.41;10580418;28;20063;-76
2023/10/04 18:04:54;;;;;;;2.80;1.63;;;;;;;14.84;100.00;102435.28;10579340;28;20482;-76
2023/10/04 18:09:54;;;;;;;3.65;2.53;;;;;;;14.79;100.00;102435.00;10580475;28;20089;-76
2023/10/04 18:14:55;;;;;;;5.95;1.95;;;;;;;14.80;100.00;102442.13;10580025;28;20023;-76
2023/10/04 18:19:55;;;;;;;2.30;2.10;;;;;;;14.75;100.00;102431.78;10580534;28;20053;-77
2023/10/04 18:24:55;;;;;;;5.15;2.63;;;;;;;14.80;100.00;102420.31;10580293;28;20044;-76
2023/10/04 18:29:59;;;;;;;3.58;1.75;;;;;;;14.75;100.00;102422.78;10578495;28;20180;-76
2023/10/04 18:34:59;;;;;;;6.50;3.60;;;;;;;14.72;100.00;102420.44;10580141;28;20315;-76
2023/10/04 18:40:03;;;;;;;5.20;2.53;;;;;;;14.66;100.00;102419.28;10581611;28;20028;-76
2023/10/04 18:45:04;;;;;;;5.50;2.60;;;;;;;14.62;100.00;102416.09;10587389;28;20038;-76
2023/10/04 18:50:05;;;;;;;3.45;2.65;;;;;;;14.71;100.00;102408.69;10587307;28;20035;-76
2023/10/04 18:55:08;;;;;;;8.05;2.65;;;;;;;14.66;100.00;102405.66;10602699;27;20073;-76
2023/10/04 19:00:12;;;;;;;16.92;2.70;;;;;;;14.73;100.00;102403.84;10587302;28;20035;-76
2023/10/04 19:05:14;;;;;;;19.15;2.95;;;;;;;14.77;100.00;102410.66;10586634;28;20394;-76
2023/10/04 19:10:16;;;;;;;4.78;2.50;;;;;;;14.80;100.00;102412.13;10569483;28;20084;-76
2023/10/04 19:15:16;;;;;;;5.20;2.30;;;;;;;14.72;100.00;102398.59;10603610;27;20031;-76
2023/10/04 19:20:19;;;;;;;7.97;2.13;;;;;;;14.78;100.00;102400.59;10583834;28;20027;-75
2023/10/04 19:25:21;;;;;;;13.95;4.00;;;;;;;14.91;100.00;102383.56;10584117;28;20050;-75
2023/10/04 19:30:21;;;;;;;7.72;2.28;;;;;;;14.99;100.00;102387.00;10586153;28;20038;-75
2023/10/04 19:35:22;;;;;;;11.55;2.90;;;;;;;14.96;100.00;102376.47;10585613;28;20028;-75
2023/10/04 19:40:22;;;;;;;6.93;2.20;;;;;;;14.86;100.00;102386.81;10585580;28;20040;-75
2023/10/04 19:45:22;;;;;;;6.85;1.92;;;;;;;14.76;100.00;102378.94;10583463;28;20032;-76
2023/10/04 19:50:26;;;;;;;6.18;2.60;;;;;;;14.69;100.00;102374.44;10583113;28;20113;-75
2023/10/04 19:55:27;;;;;;;13.68;2.97;;;;;;;14.63;100.00;102368.69;10584418;28;20063;-75
2023/10/04 20:00:30;;;;;;;22.38;4.35;;;;;;;14.58;100.00;102360.25;10584235;28;20063;-75
2023/10/04 20:05:30;;;;;;;3.78;2.40;;;;;;;14.63;100.00;102365.97;10584753;28;20538;-75
2023/10/04 20:10:33;;;;;;;2.28;2.03;;;;;;;14.71;100.00;102369.63;10582699;28;20149;-75
2023/10/04 20:15:37;;;;;;;5.30;1.92;;;;;;;14.82;100.00;102359.09;10582511;27;20130;-75
2023/10/04 20:20:38;;;;;;;9.43;3.92;;;;;;;15.02;100.00;102369.41;10583056;28;20032;-76
2023/10/04 20:25:41;;;;;;;8.93;4.07;;;;;;;15.09;100.00;102368.47;10583906;28;20100;-75
2023/10/04 20:30:42;;;;;;;19.15;3.03;;;;;;;15.20;100.00;102361.66;10583707;28;20335;-76
2023/10/04 20:35:42;;;;;;;5.20;1.58;;;;;;;15.19;100.00;102361.84;10582504;28;20031;-75
2023/10/04 20:40:44;;;;;;;5.63;2.38;;;;;;;15.13;100.00;102362.63;10581606;28;20480;-75
2023/10/04 20:45:44;;;;;;;7.47;1.73;;;;;;;15.14;100.00;102367.03;10582553;28;20173;-75
2023/10/04 20:50:45;;;;;;;2.05;1.85;;;;;;;15.13;100.00;102362.63;10580445;28;20024;-75
2023/10/04 20:55:45;;;;;;;5.75;2.55;;;;;;;15.19;100.00;102356.38;10598825;27;20036;-75
2023/10/04 21:00:46;;;;;;;8.00;2.22;;;;;;;15.40;100.00;102342.75;10581708;28;20038;-76
2023/10/04 21:05:46;;;;;;;11.45;3.05;;;;;;;15.48;100.00;102347.25;10581623;28;20356;-76
2023/10/04 21:10:46;;;;;;;13.48;3.15;;;;;;;15.45;100.00;102337.56;10581417;28;20118;-76
2023/10/04 21:15:47;;;;;;;14.90;4.00;;;;;;;15.38;100.00;102336.66;10581096;28;20035;-76
2023/10/04 21:20:47;;;;;;;14.05;3.60;;;;;;;15.45;100.00;102326.66;10580443;28;20035;-76
2023/10/04 21:25:51;;;;;;;2.22;2.13;;;;;;;15.53;100.00;102321.03;10581861;27;20059;-75
2023/10/04 21:30:57;;;;;;;15.02;2.78;;;;;;;15.53;100.00;102314.75;10580752;28;20508;-76
2023/10/04 21:36:18;;;;;;;12.00;2.55;;;;;;;15.54;100.00;102313.72;10580168;28;20086;-76
2023/10/04 21:41:21;;;;;;;4.55;2.88;;;;;;;15.51;100.00;102308.66;10579538;28;20485;-75
2023/10/04 21:46:24;;;;;;;1.83;1.67;;;;;;;15.59;100.00;102297.59;10580908;28;20028;-76
2023/10/04 21:51:34;;;;;;;15.38;2.13;;;;;;;15.74;100.00;102281.16;10579434;28;20084;-76
2023/10/04 21:56:35;;;;;;;5.47;2.42;;;;;;;15.83;100.00;102274.50;10581213;28;20039;-76
2023/10/04 22:01:35;;;;;;;5.65;2.45;;;;;;;15.90;100.00;102267.19;10578884;28;20028;-76
2023/10/04 22:06:37;;;;;;;8.27;2.70;;;;;;;15.99;100.00;102273.34;10579696;28;20046;-75
2023/10/04 22:11:37;;;;;;;6.45;3.03;;;;;;;16.02;100.00;102273.78;10580285;28;20035;-76
2023/10/04 22:16:38;;;;;;;7.65;2.63;;;;;;;16.00;100.00;102251.28;10585469;28;20042;-76
2023/10/04 22:21:42;;;;;;;2.20;2.08;;;;;;;16.01;100.00;102247.50;10586465;28;20454;-76
2023/10/04 22:26:42;;;;;;;1.77;1.67;;;;;;;16.11;100.00;102251.75;10587344;28;20035;-76
2023/10/04 22:31:44;;;;;;;7.55;2.80;;;;;;;16.27;100.00;102254.16;10586581;28;20110;-76
2023/10/04 22:36:45;;;;;;;3.38;2.10;;;;;;;16.34;100.00;102254.22;10586401;28;20183;-76
2023/10/04 22:41:46;;;;;;;4.15;1.60;;;;;;;16.40;100.00;102243.31;10587370;28;20483;-76
2023/10/04 22:46:47;;;;;;;5.80;2.47;;;;;;;16.34;100.00;102241.38;10586385;28;20451;-75